Time,TemperatureF,DewpointF,PressureIn,WindDirection,WindDirectionDegrees,WindSpeedMPH,WindSpeedGustMPH,Humidity,HourlyPrecipIn,Conditions,Clouds,dailyrainin,SoftwareType,DateUTC
2013-08-12 00:06:00,84.2,71.0,30.00,SSE,155,4.0,7.0,64,0.00,,,0.00,weatherlink.com 1.10,2013-08-12 05:06:00,
2013-08-12 00:21:00,84.3,70.0,30.00,SSE,162,2.0,9.0,63,0.00,,,0.00,weatherlink.com 1.10,2013-08-12 05:21:00,
2013-08-12 00:36:00,84.5,71.0,29.99,South,175,2.0,10.0,64,0.00,,,0.00,weatherlink.com 1.10,2013-08-12 05:36:00,
2013-08-12 00:51:00,84.0,72.0,29.99,SSE,152,1.0,8.0,68,0.00,,,0.00,weatherlink.com 1.10,2013-08-12 05:51:00,
2013-08-12 01:06:00,83.5,72.0,29.99,SSE,167,1.0,6.0,69,0.00,,,0.00,weatherlink.com 1.10,2013-08-12 06:06:00,
2013-08-12 01:21:00,83.1,73.0,29.99,SSE,167,3.0,7.0,71,0.00,,,0.00,weatherlink.com 1.10,2013-08-12 06:21:00,
2013-08-12 01:36:00,83.1,73.0,29.99,South,170,3.0,8.0,71,0.00,,,0.00,weatherlink.com 1.10,2013-08-12 06:36:00,
2013-08-12 01:51:00,83.1,72.0,29.99,SSE,167,0.0,6.0,70,0.00,,,0.00,weatherlink.com 1.10,2013-08-12 06:51:00,
2013-08-12 02:06:00,83.1,72.0,29.98,SSW,207,2.0,7.0,70,0.00,,,0.00,weatherlink.com 1.10,2013-08-12 07:06:00,
2013-08-12 02:21:00,82.8,72.0,29.98,SSE,163,3.0,7.0,69,0.00,,,0.00,weatherlink.com 1.10,2013-08-12 07:21:00,
2013-08-12 02:36:00,82.4,72.0,29.98,SSE,168,1.0,5.0,70,0.00,,,0.00,weatherlink.com 1.10,2013-08-12 07:36:00,
2013-08-12 02:51:00,82.1,71.0,29.98,South,172,1.0,7.0,70,0.00,,,0.00,weatherlink.com 1.10,2013-08-12 07:51:00,
2013-08-12 03:07:00,81.7,71.0,29.99,South,178,0.0,4.0,71,0.00,,,0.00,weatherlink.com 1.10,2013-08-12 08:07:00,
2013-08-12 03:22:00,81.5,72.0,29.99,SSE,158,0.0,4.0,72,0.00,,,0.00,weatherlink.com 1.10,2013-08-12 08:22:00,
2013-08-12 03:37:00,81.2,71.0,29.98,South,186,0.0,4.0,72,0.00,,,0.00,weatherlink.com 1.10,2013-08-12 08:37:00,
2013-08-12 03:52:00,81.1,72.0,29.98,South,169,1.0,6.0,73,0.00,,,0.00,weatherlink.com 1.10,2013-08-12 08:52:00,
2013-08-12 04:07:00,80.8,71.0,29.98,South,178,1.0,5.0,73,0.00,,,0.00,weatherlink.com 1.10,2013-08-12 09:07:00,
2013-08-12 04:22:00,80.3,71.0,29.98,SSE,166,0.0,5.0,73,0.00,,,0.00,weatherlink.com 1.10,2013-08-12 09:22:00,
2013-08-12 04:37:00,79.9,71.0,29.98,South,182,1.0,5.0,74,0.00,,,0.00,weatherlink.com 1.10,2013-08-12 09:37:00,
2013-08-12 04:52:00,79.6,71.0,29.98,SSE,162,2.0,5.0,75,0.00,,,0.00,weatherlink.com 1.10,2013-08-12 09:52:00,
2013-08-12 05:07:00,79.5,71.0,29.98,South,173,2.0,5.0,75,0.00,,,0.00,weatherlink.com 1.10,2013-08-12 10:07:00,
2013-08-12 05:22:00,79.1,71.0,29.98,SSE,168,1.0,5.0,76,0.00,,,0.00,weatherlink.com 1.10,2013-08-12 10:22:00,
2013-08-12 05:37:00,79.0,71.0,29.98,South,173,1.0,7.0,76,0.00,,,0.00,weatherlink.com 1.10,2013-08-12 10:37:00,
2013-08-12 05:52:00,78.7,71.0,29.98,South,173,2.0,6.0,77,0.00,,,0.00,weatherlink.com 1.10,2013-08-12 10:52:00,
2013-08-12 06:07:00,78.7,71.0,29.99,SSE,166,2.0,6.0,78,0.00,,,0.00,weatherlink.com 1.10,2013-08-12 11:07:00,
2013-08-12 06:22:00,78.5,72.0,29.99,South,174,3.0,6.0,79,0.00,,,0.00,weatherlink.com 1.10,2013-08-12 11:22:00,
2013-08-12 06:37:00,78.4,71.0,29.99,SSE,163,2.0,6.0,79,0.00,,,0.00,weatherlink.com 1.10,2013-08-12 11:37:00,
2013-08-12 06:52:00,78.5,72.0,30.00,South,177,3.0,6.0,79,0.00,,,0.00,weatherlink.com 1.10,2013-08-12 11:52:00,
2013-08-12 07:07:00,78.4,72.0,30.00,South,172,2.0,8.0,80,0.00,,,0.00,weatherlink.com 1.10,2013-08-12 12:07:00,
2013-08-12 07:22:00,78.5,72.0,30.00,South,178,2.0,6.0,80,0.00,,,0.00,weatherlink.com 1.10,2013-08-12 12:22:00,
2013-08-12 07:37:00,78.6,72.0,30.01,South,169,1.0,6.0,80,0.00,,,0.00,weatherlink.com 1.10,2013-08-12 12:37:00,
2013-08-12 07:52:00,78.8,73.0,30.01,South,175,2.0,5.0,81,0.00,,,0.00,weatherlink.com 1.10,2013-08-12 12:52:00,
2013-08-12 08:07:00,78.9,72.0,30.01,South,175,1.0,5.0,80,0.00,,,0.00,weatherlink.com 1.10,2013-08-12 13:07:00,
2013-08-12 08:22:00,79.5,73.0,30.01,SSE,159,2.0,5.0,80,0.00,,,0.00,weatherlink.com 1.10,2013-08-12 13:22:00,
2013-08-12 08:37:00,81.1,74.0,30.01,South,173,2.0,7.0,78,0.00,,,0.00,weatherlink.com 1.10,2013-08-12 13:37:00,
2013-08-12 08:52:00,82.2,73.0,30.02,South,190,1.0,8.0,74,0.00,,,0.00,weatherlink.com 1.10,2013-08-12 13:52:00,
2013-08-12 09:07:00,83.0,74.0,30.02,SSW,209,5.0,6.0,73,0.00,,,0.00,weatherlink.com 1.10,2013-08-12 14:07:00,
2013-08-12 09:22:00,83.9,74.0,30.02,SSW,209,1.0,7.0,72,0.00,,,0.00,weatherlink.com 1.10,2013-08-12 14:22:00,
2013-08-12 09:37:00,85.0,74.0,30.02,South,180,0.0,7.0,69,0.00,,,0.00,weatherlink.com 1.10,2013-08-12 14:37:00,
2013-08-12 09:52:00,86.1,74.0,30.02,SSE,159,1.0,6.0,68,0.00,,,0.00,weatherlink.com 1.10,2013-08-12 14:52:00,
2013-08-12 10:07:00,86.8,74.0,30.01,South,170,2.0,9.0,66,0.00,,,0.00,weatherlink.com 1.10,2013-08-12 15:07:00,
2013-08-12 10:22:00,87.0,74.0,30.02,SSE,159,3.0,8.0,65,0.00,,,0.00,weatherlink.com 1.10,2013-08-12 15:22:00,
2013-08-12 10:37:00,88.2,75.0,30.02,South,177,4.0,6.0,64,0.00,,,0.00,weatherlink.com 1.10,2013-08-12 15:37:00,
2013-08-12 10:52:00,88.9,74.0,30.02,SSW,196,5.0,8.0,61,0.00,,,0.00,weatherlink.com 1.10,2013-08-12 15:52:00,
2013-08-12 11:07:00,89.7,74.0,30.02,SSE,167,4.0,7.0,61,0.00,,,0.00,weatherlink.com 1.10,2013-08-12 16:07:00,
2013-08-12 11:22:00,90.2,74.0,30.02,SSW,194,1.0,9.0,59,0.00,,,0.00,weatherlink.com 1.10,2013-08-12 16:22:00,
2013-08-12 11:37:00,90.9,74.0,30.02,South,182,2.0,6.0,57,0.00,,,0.00,weatherlink.com 1.10,2013-08-12 16:37:00,
2013-08-12 11:52:00,91.7,74.0,30.01,SSE,164,1.0,7.0,56,0.00,,,0.00,weatherlink.com 1.10,2013-08-12 16:52:00,
2013-08-12 12:07:00,92.6,74.0,30.01,South,170,2.0,6.0,55,0.00,,,0.00,weatherlink.com 1.10,2013-08-12 17:07:00,
2013-08-12 12:22:00,93.0,74.0,30.01,SSE,166,5.0,7.0,54,0.00,,,0.00,weatherlink.com 1.10,2013-08-12 17:22:00,
2013-08-12 12:37:00,93.3,73.0,30.00,SSE,161,0.0,8.0,52,0.00,,,0.00,weatherlink.com 1.10,2013-08-12 17:37:00,
2013-08-12 12:53:00,94.0,74.0,30.00,SSE,155,2.0,6.0,52,0.00,,,0.00,weatherlink.com 1.10,2013-08-12 17:53:00,
2013-08-12 13:08:00,94.1,73.0,29.99,South,170,6.0,8.0,50,0.00,,,0.00,weatherlink.com 1.10,2013-08-12 18:08:00,
2013-08-12 13:38:00,95.1,73.0,29.98,SSE,162,2.0,8.0,49,0.00,,,0.00,weatherlink.com 1.10,2013-08-12 18:38:00,
2013-08-12 13:53:00,95.8,72.0,29.98,South,174,1.0,7.0,46,0.00,,,0.00,weatherlink.com 1.10,2013-08-12 18:53:00,
2013-08-12 14:08:00,96.2,72.0,29.97,SSE,157,2.0,7.0,45,0.00,,,0.00,weatherlink.com 1.10,2013-08-12 19:08:00,
2013-08-12 14:23:00,96.4,71.0,29.96,SSE,155,0.0,7.0,44,0.00,,,0.00,weatherlink.com 1.10,2013-08-12 19:23:00,
2013-08-12 14:38:00,97.5,73.0,29.95,South,169,1.0,7.0,45,0.00,,,0.00,weatherlink.com 1.10,2013-08-12 19:38:00,
2013-08-12 14:53:00,97.9,73.0,29.95,SSE,160,3.0,6.0,44,0.00,,,0.00,weatherlink.com 1.10,2013-08-12 19:53:00,
2013-08-12 15:08:00,97.9,72.0,29.95,SSE,149,3.0,6.0,43,0.00,,,0.00,weatherlink.com 1.10,2013-08-12 20:08:00,
2013-08-12 15:23:00,97.9,73.0,29.94,SSE,152,0.0,5.0,44,0.00,,,0.00,weatherlink.com 1.10,2013-08-12 20:23:00,
2013-08-12 15:38:00,98.7,73.0,29.93,South,170,2.0,5.0,43,0.00,,,0.00,weatherlink.com 1.10,2013-08-12 20:38:00,
2013-08-12 15:53:00,99.1,72.0,29.92,SSE,163,2.0,6.0,41,0.00,,,0.00,weatherlink.com 1.10,2013-08-12 20:53:00,
2013-08-12 16:08:00,99.4,72.0,29.91,SSE,159,3.0,7.0,41,0.00,,,0.00,weatherlink.com 1.10,2013-08-12 21:08:00,
2013-08-12 16:23:00,99.6,71.0,29.91,SSE,165,1.0,6.0,40,0.00,,,0.00,weatherlink.com 1.10,2013-08-12 21:23:00,
2013-08-12 16:38:00,99.8,71.0,29.90,SSE,167,2.0,5.0,40,0.00,,,0.00,weatherlink.com 1.10,2013-08-12 21:38:00,
2013-08-12 16:53:00,99.5,70.0,29.89,SE,141,1.0,7.0,39,0.00,,,0.00,weatherlink.com 1.10,2013-08-12 21:53:00,
2013-08-12 17:08:00,100.0,72.0,29.89,SSE,167,0.0,6.0,40,0.00,,,0.00,weatherlink.com 1.10,2013-08-12 22:08:00,
2013-08-12 17:23:00,100.3,71.0,29.89,SSE,164,1.0,6.0,39,0.00,,,0.00,weatherlink.com 1.10,2013-08-12 22:23:00,
2013-08-12 17:38:00,100.3,70.0,29.89,SSE,159,0.0,5.0,38,0.00,,,0.00,weatherlink.com 1.10,2013-08-12 22:38:00,
2013-08-12 17:53:00,100.3,70.0,29.89,SSE,165,0.0,5.0,38,0.00,,,0.00,weatherlink.com 1.10,2013-08-12 22:53:00,
2013-08-12 18:08:00,100.2,70.0,29.89,West,275,0.0,5.0,38,0.00,,,0.00,weatherlink.com 1.10,2013-08-12 23:08:00,
2013-08-12 18:23:00,99.7,69.0,29.89,SSE,161,0.0,4.0,37,0.00,,,0.00,weatherlink.com 1.10,2013-08-12 23:23:00,
2013-08-12 18:38:00,99.0,69.0,29.89,SSE,163,0.0,5.0,38,0.00,,,0.00,weatherlink.com 1.10,2013-08-12 23:38:00,
2013-08-12 18:53:00,99.1,69.0,29.89,SSE,161,0.0,3.0,37,0.00,,,0.00,weatherlink.com 1.10,2013-08-12 23:53:00,
2013-08-12 19:08:00,98.2,69.0,29.88,SSE,158,2.0,5.0,39,0.00,,,0.00,weatherlink.com 1.10,2013-08-13 00:08:00,
2013-08-12 19:23:00,96.6,69.0,29.89,SSE,157,0.0,4.0,40,0.00,,,0.00,weatherlink.com 1.10,2013-08-13 00:23:00,
2013-08-12 19:38:00,95.5,69.0,29.89,South,177,2.0,4.0,42,0.00,,,0.00,weatherlink.com 1.10,2013-08-13 00:38:00,
2013-08-12 19:53:00,94.7,68.0,29.89,South,174,1.0,7.0,42,0.00,,,0.00,weatherlink.com 1.10,2013-08-13 00:53:00,
2013-08-12 20:08:00,93.9,67.0,29.89,SE,145,2.0,5.0,42,0.00,,,0.00,weatherlink.com 1.10,2013-08-13 01:08:00,
2013-08-12 20:23:00,93.4,67.0,29.89,South,170,0.0,6.0,42,0.00,,,0.00,weatherlink.com 1.10,2013-08-13 01:23:00,
2013-08-12 20:38:00,92.7,67.0,29.90,SSE,163,2.0,4.0,43,0.00,,,0.00,weatherlink.com 1.10,2013-08-13 01:38:00,
2013-08-12 20:53:00,92.1,67.0,29.91,South,170,0.0,4.0,44,0.00,,,0.00,weatherlink.com 1.10,2013-08-13 01:53:00,
2013-08-12 21:08:00,91.3,67.0,29.91,South,174,0.0,4.0,45,0.00,,,0.00,weatherlink.com 1.10,2013-08-13 02:08:00,
2013-08-12 21:23:00,90.9,67.0,29.91,ESE,117,2.0,5.0,45,0.00,,,0.00,weatherlink.com 1.10,2013-08-13 02:23:00,
2013-08-12 21:38:00,90.6,67.0,29.92,SE,140,1.0,7.0,46,0.00,,,0.00,weatherlink.com 1.10,2013-08-13 02:38:00,
2013-08-12 21:53:00,90.2,67.0,29.93,South,170,2.0,6.0,46,0.00,,,0.00,weatherlink.com 1.10,2013-08-13 02:53:00,
2013-08-12 22:08:00,89.9,67.0,29.93,SSE,163,1.0,5.0,47,0.00,,,0.00,weatherlink.com 1.10,2013-08-13 03:08:00,
2013-08-12 22:23:00,89.4,67.0,29.93,South,169,3.0,6.0,47,0.00,,,0.00,weatherlink.com 1.10,2013-08-13 03:23:00,
2013-08-12 22:38:00,89.1,67.0,29.92,South,171,1.0,5.0,48,0.00,,,0.00,weatherlink.com 1.10,2013-08-13 03:38:00,
2013-08-12 22:53:00,88.7,67.0,29.92,SSE,157,1.0,5.0,48,0.00,,,0.00,weatherlink.com 1.10,2013-08-13 03:53:00,
2013-08-12 23:08:00,88.4,67.0,29.92,SE,140,2.0,6.0,49,0.00,,,0.00,weatherlink.com 1.10,2013-08-13 04:08:00,
2013-08-12 23:23:00,87.8,67.0,29.92,SSE,154,0.0,7.0,51,0.00,,,0.00,weatherlink.com 1.10,2013-08-13 04:23:00,
2013-08-12 23:38:00,87.6,68.0,29.91,SSE,150,6.0,7.0,52,0.00,,,0.00,weatherlink.com 1.10,2013-08-13 04:38:00,
2013-08-12 23:53:00,87.1,68.0,29.91,SE,126,1.0,6.0,54,0.00,,,0.00,weatherlink.com 1.10,2013-08-13 04:53:00,